sensor_id;sensor_type;location;lat;lon;timestamp;P1;durP1;ratioP1;P2;durP2;ratioP2
12725;SDS011;6427;49.754;6.106;2023-07-31T00:01:40;4.60;;;2.47;;
12725;SDS011;6427;49.754;6.106;2023-07-31T00:04:08;3.70;;;1.80;;
12725;SDS011;6427;49.754;6.106;2023-07-31T00:06:36;4.63;;;2.20;;
12725;SDS011;6427;49.754;6.106;2023-07-31T00:09:04;3.23;;;1.87;;
12725;SDS011;6427;49.754;6.106;2023-07-31T00:11:32;5.50;;;2.13;;
12725;SDS011;6427;49.754;6.106;2023-07-31T00:14:00;3.30;;;2.45;;
12725;SDS011;6427;49.754;6.106;2023-07-31T00:16:27;4.47;;;1.90;;
12725;SDS011;6427;49.754;6.106;2023-07-31T00:18:55;5.23;;;2.50;;
12725;SDS011;6427;49.754;6.106;2023-07-31T00:21:23;4.90;;;1.97;;
12725;SDS011;6427;49.754;6.106;2023-07-31T00:23:51;4.60;;;2.17;;
12725;SDS011;6427;49.754;6.106;2023-07-31T00:26:19;6.03;;;2.28;;
12725;SDS011;6427;49.754;6.106;2023-07-31T00:28:46;5.40;;;2.43;;
12725;SDS011;6427;49.754;6.106;2023-07-31T00:31:14;4.37;;;1.93;;
12725;SDS011;6427;49.754;6.106;2023-07-31T00:33:41;5.03;;;2.40;;
12725;SDS011;6427;49.754;6.106;2023-07-31T00:36:09;5.50;;;2.10;;
12725;SDS011;6427;49.754;6.106;2023-07-31T00:38:37;5.97;;;2.45;;
12725;SDS011;6427;49.754;6.106;2023-07-31T00:41:04;4.60;;;2.40;;
12725;SDS011;6427;49.754;6.106;2023-07-31T00:43:32;2.60;;;1.63;;
12725;SDS011;6427;49.754;6.106;2023-07-31T00:45:59;5.62;;;2.30;;
12725;SDS011;6427;49.754;6.106;2023-07-31T00:48:27;3.03;;;2.20;;
12725;SDS011;6427;49.754;6.106;2023-07-31T00:50:54;2.30;;;1.67;;
12725;SDS011;6427;49.754;6.106;2023-07-31T00:53:22;4.23;;;2.30;;
12725;SDS011;6427;49.754;6.106;2023-07-31T00:55:50;3.33;;;1.90;;
12725;SDS011;6427;49.754;6.106;2023-07-31T00:58:17;6.33;;;2.13;;
12725;SDS011;6427;49.754;6.106;2023-07-31T01:00:45;2.97;;;1.83;;
12725;SDS011;6427;49.754;6.106;2023-07-31T01:03:12;2.73;;;1.70;;
12725;SDS011;6427;49.754;6.106;2023-07-31T01:05:49;5.07;;;1.93;;
12725;SDS011;6427;49.754;6.106;2023-07-31T01:08:24;5.97;;;1.83;;
12725;SDS011;6427;49.754;6.106;2023-07-31T01:11:18;2.97;;;1.77;;
12725;SDS011;6427;49.754;6.106;2023-07-31T01:13:44;4.37;;;2.37;;
12725;SDS011;6427;49.754;6.106;2023-07-31T01:16:13;6.37;;;1.87;;
12725;SDS011;6427;49.754;6.106;2023-07-31T01:18:40;3.93;;;2.20;;
12725;SDS011;6427;49.754;6.106;2023-07-31T01:24:29;4.43;;;1.70;;
12725;SDS011;6427;49.754;6.106;2023-07-31T01:26:21;3.27;;;1.57;;
12725;SDS011;6427;49.754;6.106;2023-07-31T01:28:50;3.97;;;2.03;;
12725;SDS011;6427;49.754;6.106;2023-07-31T01:31:22;8.37;;;2.43;;
12725;SDS011;6427;49.754;6.106;2023-07-31T01:33:45;4.03;;;1.90;;
12725;SDS011;6427;49.754;6.106;2023-07-31T01:36:12;7.00;;;2.40;;
12725;SDS011;6427;49.754;6.106;2023-07-31T01:38:40;6.17;;;2.10;;
12725;SDS011;6427;49.754;6.106;2023-07-31T01:41:08;5.15;;;2.50;;
12725;SDS011;6427;49.754;6.106;2023-07-31T01:43:35;5.63;;;1.90;;
12725;SDS011;6427;49.754;6.106;2023-07-31T01:46:03;5.47;;;2.30;;
12725;SDS011;6427;49.754;6.106;2023-07-31T01:48:30;6.77;;;2.30;;
12725;SDS011;6427;49.754;6.106;2023-07-31T01:51:00;3.70;;;1.80;;
12725;SDS011;6427;49.754;6.106;2023-07-31T01:53:26;5.15;;;2.33;;
12725;SDS011;6427;49.754;6.106;2023-07-31T01:55:55;5.73;;;2.10;;
12725;SDS011;6427;49.754;6.106;2023-07-31T01:58:23;4.60;;;2.10;;
12725;SDS011;6427;49.754;6.106;2023-07-31T02:00:51;5.27;;;2.13;;
12725;SDS011;6427;49.754;6.106;2023-07-31T02:03:20;5.73;;;1.83;;
12725;SDS011;6427;49.754;6.106;2023-07-31T02:05:48;6.13;;;1.90;;
12725;SDS011;6427;49.754;6.106;2023-07-31T02:08:16;5.25;;;2.25;;
12725;SDS011;6427;49.754;6.106;2023-07-31T02:10:43;4.20;;;1.80;;
12725;SDS011;6427;49.754;6.106;2023-07-31T02:13:11;5.00;;;1.87;;
12725;SDS011;6427;49.754;6.106;2023-07-31T02:15:38;7.80;;;2.10;;
12725;SDS011;6427;49.754;6.106;2023-07-31T02:18:06;4.53;;;2.00;;
12725;SDS011;6427;49.754;6.106;2023-07-31T02:20:34;5.57;;;2.00;;
12725;SDS011;6427;49.754;6.106;2023-07-31T02:23:01;5.03;;;1.83;;
12725;SDS011;6427;49.754;6.106;2023-07-31T02:25:30;6.23;;;2.20;;
12725;SDS011;6427;49.754;6.106;2023-07-31T02:27:57;4.07;;;1.83;;
12725;SDS011;6427;49.754;6.106;2023-07-31T02:30:26;4.93;;;2.07;;
12725;SDS011;6427;49.754;6.106;2023-07-31T02:32:54;5.70;;;2.07;;
12725;SDS011;6427;49.754;6.106;2023-07-31T02:35:22;5.00;;;1.83;;
12725;SDS011;6427;49.754;6.106;2023-07-31T02:37:50;4.77;;;2.00;;
12725;SDS011;6427;49.754;6.106;2023-07-31T02:40:18;3.80;;;1.90;;
12725;SDS011;6427;49.754;6.106;2023-07-31T02:42:46;9.13;;;2.80;;
12725;SDS011;6427;49.754;6.106;2023-07-31T02:45:13;4.93;;;2.30;;
12725;SDS011;6427;49.754;6.106;2023-07-31T02:47:41;5.03;;;2.40;;
12725;SDS011;6427;49.754;6.106;2023-07-31T02:50:09;5.47;;;2.20;;
12725;SDS011;6427;49.754;6.106;2023-07-31T02:52:36;6.07;;;2.67;;
12725;SDS011;6427;49.754;6.106;2023-07-31T02:55:04;5.05;;;2.72;;
12725;SDS011;6427;49.754;6.106;2023-07-31T02:57:31;5.03;;;2.27;;
12725;SDS011;6427;49.754;6.106;2023-07-31T03:00:00;4.83;;;2.27;;
12725;SDS011;6427;49.754;6.106;2023-07-31T03:02:27;6.57;;;1.73;;
12725;SDS011;6427;49.754;6.106;2023-07-31T03:04:55;5.10;;;2.27;;
12725;SDS011;6427;49.754;6.106;2023-07-31T03:07:23;4.00;;;2.17;;
12725;SDS011;6427;49.754;6.106;2023-07-31T03:09:51;4.83;;;2.00;;
12725;SDS011;6427;49.754;6.106;2023-07-31T03:12:18;5.73;;;2.43;;
12725;SDS011;6427;49.754;6.106;2023-07-31T03:14:46;7.07;;;2.67;;
12725;SDS011;6427;49.754;6.106;2023-07-31T03:17:15;7.57;;;2.30;;
12725;SDS011;6427;49.754;6.106;2023-07-31T03:19:43;4.63;;;2.43;;
12725;SDS011;6427;49.754;6.106;2023-07-31T03:22:10;6.60;;;2.60;;
12725;SDS011;6427;49.754;6.106;2023-07-31T03:24:38;5.17;;;2.37;;
12725;SDS011;6427;49.754;6.106;2023-07-31T03:27:06;4.23;;;2.23;;
12725;SDS011;6427;49.754;6.106;2023-07-31T03:29:33;8.10;;;2.37;;
12725;SDS011;6427;49.754;6.106;2023-07-31T03:32:01;5.50;;;2.63;;
12725;SDS011;6427;49.754;6.106;2023-07-31T03:34:29;5.53;;;2.10;;
12725;SDS011;6427;49.754;6.106;2023-07-31T03:36:56;8.97;;;2.67;;
12725;SDS011;6427;49.754;6.106;2023-07-31T03:39:24;8.98;;;3.00;;
12725;SDS011;6427;49.754;6.106;2023-07-31T03:41:52;9.17;;;2.80;;
12725;SDS011;6427;49.754;6.106;2023-07-31T03:44:20;9.20;;;2.30;;
12725;SDS011;6427;49.754;6.106;2023-07-31T03:46:47;4.97;;;2.60;;
12725;SDS011;6427;49.754;6.106;2023-07-31T03:49:15;8.63;;;2.57;;
12725;SDS011;6427;49.754;6.106;2023-07-31T03:51:42;5.47;;;2.23;;
12725;SDS011;6427;49.754;6.106;2023-07-31T03:54:10;9.00;;;3.17;;
12725;SDS011;6427;49.754;6.106;2023-07-31T03:56:38;7.10;;;2.87;;
12725;SDS011;6427;49.754;6.106;2023-07-31T03:59:05;6.77;;;3.03;;
12725;SDS011;6427;49.754;6.106;2023-07-31T04:01:33;9.17;;;2.73;;
12725;SDS011;6427;49.754;6.106;2023-07-31T04:04:00;5.67;;;2.83;;
12725;SDS011;6427;49.754;6.106;2023-07-31T04:06:28;7.30;;;2.67;;
12725;SDS011;6427;49.754;6.106;2023-07-31T04:08:56;5.93;;;2.40;;
12725;SDS011;6427;49.754;6.106;2023-07-31T04:11:23;7.13;;;2.27;;
12725;SDS011;6427;49.754;6.106;2023-07-31T04:13:51;6.70;;;2.73;;
12725;SDS011;6427;49.754;6.106;2023-07-31T04:16:18;8.37;;;2.97;;
12725;SDS011;6427;49.754;6.106;2023-07-31T04:18:46;6.43;;;2.73;;
12725;SDS011;6427;49.754;6.106;2023-07-31T04:21:13;6.63;;;2.70;;
12725;SDS011;6427;49.754;6.106;2023-07-31T04:23:42;4.37;;;2.53;;
12725;SDS011;6427;49.754;6.106;2023-07-31T04:26:09;8.23;;;3.33;;
12725;SDS011;6427;49.754;6.106;2023-07-31T04:28:38;6.60;;;3.17;;
12725;SDS011;6427;49.754;6.106;2023-07-31T04:31:05;7.80;;;2.67;;
12725;SDS011;6427;49.754;6.106;2023-07-31T04:33:33;7.47;;;2.63;;
12725;SDS011;6427;49.754;6.106;2023-07-31T04:36:01;7.47;;;2.80;;
12725;SDS011;6427;49.754;6.106;2023-07-31T04:38:29;14.00;;;3.43;;
12725;SDS011;6427;49.754;6.106;2023-07-31T04:40:57;6.43;;;2.67;;
12725;SDS011;6427;49.754;6.106;2023-07-31T04:43:25;7.93;;;3.10;;
12725;SDS011;6427;49.754;6.106;2023-07-31T04:45:53;6.70;;;2.80;;
12725;SDS011;6427;49.754;6.106;2023-07-31T04:48:20;6.07;;;2.30;;
12725;SDS011;6427;49.754;6.106;2023-07-31T04:50:48;5.23;;;2.40;;
12725;SDS011;6427;49.754;6.106;2023-07-31T04:53:15;7.60;;;2.40;;
12725;SDS011;6427;49.754;6.106;2023-07-31T04:55:43;6.93;;;2.37;;
12725;SDS011;6427;49.754;6.106;2023-07-31T04:58:10;8.10;;;2.63;;
12725;SDS011;6427;49.754;6.106;2023-07-31T05:00:38;5.67;;;2.70;;
12725;SDS011;6427;49.754;6.106;2023-07-31T05:03:06;7.53;;;2.70;;
12725;SDS011;6427;49.754;6.106;2023-07-31T05:05:33;6.87;;;2.53;;
12725;SDS011;6427;49.754;6.106;2023-07-31T05:08:01;6.80;;;2.87;;
12725;SDS011;6427;49.754;6.106;2023-07-31T05:10:29;6.33;;;2.10;;
12725;SDS011;6427;49.754;6.106;2023-07-31T05:12:57;5.63;;;2.47;;
12725;SDS011;6427;49.754;6.106;2023-07-31T05:15:24;7.87;;;2.87;;
12725;SDS011;6427;49.754;6.106;2023-07-31T05:17:52;6.07;;;2.43;;
12725;SDS011;6427;49.754;6.106;2023-07-31T05:20:20;7.93;;;2.70;;
12725;SDS011;6427;49.754;6.106;2023-07-31T05:22:47;6.90;;;2.63;;
12725;SDS011;6427;49.754;6.106;2023-07-31T05:25:15;7.77;;;2.63;;
12725;SDS011;6427;49.754;6.106;2023-07-31T05:27:42;6.33;;;2.50;;
12725;SDS011;6427;49.754;6.106;2023-07-31T05:30:10;4.60;;;2.67;;
12725;SDS011;6427;49.754;6.106;2023-07-31T05:32:38;4.77;;;2.07;;
12725;SDS011;6427;49.754;6.106;2023-07-31T05:35:05;5.80;;;2.53;;
12725;SDS011;6427;49.754;6.106;2023-07-31T05:37:33;6.93;;;2.40;;
12725;SDS011;6427;49.754;6.106;2023-07-31T05:40:00;7.53;;;3.00;;
12725;SDS011;6427;49.754;6.106;2023-07-31T05:42:28;7.60;;;2.83;;
12725;SDS011;6427;49.754;6.106;2023-07-31T05:44:56;8.23;;;2.67;;
12725;SDS011;6427;49.754;6.106;2023-07-31T05:47:23;4.97;;;2.30;;
12725;SDS011;6427;49.754;6.106;2023-07-31T05:49:51;7.30;;;2.83;;
12725;SDS011;6427;49.754;6.106;2023-07-31T05:52:18;5.53;;;2.33;;
12725;SDS011;6427;49.754;6.106;2023-07-31T05:54:46;4.97;;;2.20;;
12725;SDS011;6427;49.754;6.106;2023-07-31T05:57:13;10.80;;;3.10;;
12725;SDS011;6427;49.754;6.106;2023-07-31T05:59:41;6.93;;;2.70;;
12725;SDS011;6427;49.754;6.106;2023-07-31T06:02:09;6.80;;;2.27;;
12725;SDS011;6427;49.754;6.106;2023-07-31T06:04:36;10.60;;;2.60;;
12725;SDS011;6427;49.754;6.106;2023-07-31T06:07:04;9.33;;;2.40;;
12725;SDS011;6427;49.754;6.106;2023-07-31T06:09:31;4.67;;;2.10;;
12725;SDS011;6427;49.754;6.106;2023-07-31T06:11:59;5.67;;;2.50;;
12725;SDS011;6427;49.754;6.106;2023-07-31T06:14:27;7.07;;;2.30;;
12725;SDS011;6427;49.754;6.106;2023-07-31T06:16:54;6.17;;;2.50;;
12725;SDS011;6427;49.754;6.106;2023-07-31T06:19:22;7.00;;;2.30;;
12725;SDS011;6427;49.754;6.106;2023-07-31T06:21:49;7.15;;;2.80;;
12725;SDS011;6427;49.754;6.106;2023-07-31T06:24:17;5.73;;;2.70;;
12725;SDS011;6427;49.754;6.106;2023-07-31T06:26:45;6.40;;;2.17;;
12725;SDS011;6427;49.754;6.106;2023-07-31T06:29:13;5.80;;;2.10;;
12725;SDS011;6427;49.754;6.106;2023-07-31T06:31:41;6.83;;;2.50;;
12725;SDS011;6427;49.754;6.106;2023-07-31T06:34:08;6.73;;;2.10;;
12725;SDS011;6427;49.754;6.106;2023-07-31T06:36:36;7.60;;;2.47;;
12725;SDS011;6427;49.754;6.106;2023-07-31T06:39:03;6.40;;;2.13;;
12725;SDS011;6427;49.754;6.106;2023-07-31T06:41:32;7.00;;;2.23;;
12725;SDS011;6427;49.754;6.106;2023-07-31T06:44:00;8.30;;;2.80;;
12725;SDS011;6427;49.754;6.106;2023-07-31T06:46:28;8.23;;;2.03;;
12725;SDS011;6427;49.754;6.106;2023-07-31T06:48:55;6.22;;;2.62;;
12725;SDS011;6427;49.754;6.106;2023-07-31T06:51:23;4.73;;;2.43;;
12725;SDS011;6427;49.754;6.106;2023-07-31T06:53:51;7.03;;;2.73;;
12725;SDS011;6427;49.754;6.106;2023-07-31T06:56:18;4.07;;;2.23;;
12725;SDS011;6427;49.754;6.106;2023-07-31T06:58:46;9.00;;;3.07;;
12725;SDS011;6427;49.754;6.106;2023-07-31T07:01:13;7.10;;;2.20;;
12725;SDS011;6427;49.754;6.106;2023-07-31T07:03:41;7.63;;;2.67;;
12725;SDS011;6427;49.754;6.106;2023-07-31T07:06:09;6.78;;;2.70;;
12725;SDS011;6427;49.754;6.106;2023-07-31T07:08:36;5.50;;;2.50;;
12725;SDS011;6427;49.754;6.106;2023-07-31T07:11:05;6.65;;;2.70;;
12725;SDS011;6427;49.754;6.106;2023-07-31T07:13:32;4.80;;;2.40;;
12725;SDS011;6427;49.754;6.106;2023-07-31T07:16:00;7.33;;;2.47;;
12725;SDS011;6427;49.754;6.106;2023-07-31T07:18:28;5.63;;;2.57;;
12725;SDS011;6427;49.754;6.106;2023-07-31T07:20:56;8.13;;;2.33;;
12725;SDS011;6427;49.754;6.106;2023-07-31T07:23:23;5.83;;;2.20;;
12725;SDS011;6427;49.754;6.106;2023-07-31T07:25:51;7.20;;;2.43;;
12725;SDS011;6427;49.754;6.106;2023-07-31T07:28:19;3.43;;;1.93;;
12725;SDS011;6427;49.754;6.106;2023-07-31T07:30:50;6.60;;;2.43;;
12725;SDS011;6427;49.754;6.106;2023-07-31T07:33:14;6.90;;;2.30;;
12725;SDS011;6427;49.754;6.106;2023-07-31T07:35:41;7.97;;;2.50;;
12725;SDS011;6427;49.754;6.106;2023-07-31T07:38:09;6.03;;;2.23;;
12725;SDS011;6427;49.754;6.106;2023-07-31T07:40:39;6.20;;;2.47;;
12725;SDS011;6427;49.754;6.106;2023-07-31T07:43:07;7.37;;;2.83;;
12725;SDS011;6427;49.754;6.106;2023-07-31T07:45:34;4.67;;;2.40;;
12725;SDS011;6427;49.754;6.106;2023-07-31T07:48:03;5.13;;;2.13;;
12725;SDS011;6427;49.754;6.106;2023-07-31T07:50:30;5.90;;;2.47;;
12725;SDS011;6427;49.754;6.106;2023-07-31T07:52:58;12.63;;;2.83;;
12725;SDS011;6427;49.754;6.106;2023-07-31T07:55:26;6.57;;;2.17;;
12725;SDS011;6427;49.754;6.106;2023-07-31T07:57:53;4.23;;;2.20;;
12725;SDS011;6427;49.754;6.106;2023-07-31T08:00:21;5.83;;;2.10;;
12725;SDS011;6427;49.754;6.106;2023-07-31T08:02:49;4.50;;;1.60;;
12725;SDS011;6427;49.754;6.106;2023-07-31T08:05:17;4.43;;;1.77;;
12725;SDS011;6427;49.754;6.106;2023-07-31T08:07:44;3.77;;;1.90;;
12725;SDS011;6427;49.754;6.106;2023-07-31T08:10:12;3.10;;;2.03;;
12725;SDS011;6427;49.754;6.106;2023-07-31T08:12:40;4.23;;;1.70;;
12725;SDS011;6427;49.754;6.106;2023-07-31T08:15:07;3.95;;;1.90;;
12725;SDS011;6427;49.754;6.106;2023-07-31T08:17:35;4.00;;;2.03;;
12725;SDS011;6427;49.754;6.106;2023-07-31T08:20:03;5.07;;;2.13;;
12725;SDS011;6427;49.754;6.106;2023-07-31T08:22:31;5.97;;;1.53;;
12725;SDS011;6427;49.754;6.106;2023-07-31T08:24:58;4.87;;;1.53;;
12725;SDS011;6427;49.754;6.106;2023-07-31T08:27:27;4.00;;;1.80;;
12725;SDS011;6427;49.754;6.106;2023-07-31T08:29:54;3.33;;;1.63;;
12725;SDS011;6427;49.754;6.106;2023-07-31T08:32:22;4.03;;;2.08;;
12725;SDS011;6427;49.754;6.106;2023-07-31T08:34:50;4.67;;;1.90;;
12725;SDS011;6427;49.754;6.106;2023-07-31T08:37:17;8.67;;;2.37;;
12725;SDS011;6427;49.754;6.106;2023-07-31T08:39:45;3.83;;;1.90;;
12725;SDS011;6427;49.754;6.106;2023-07-31T08:42:12;4.17;;;1.83;;
12725;SDS011;6427;49.754;6.106;2023-07-31T08:44:40;4.97;;;2.20;;
12725;SDS011;6427;49.754;6.106;2023-07-31T08:47:08;4.10;;;1.98;;
12725;SDS011;6427;49.754;6.106;2023-07-31T08:49:36;5.43;;;2.20;;
12725;SDS011;6427;49.754;6.106;2023-07-31T08:52:04;4.23;;;1.67;;
12725;SDS011;6427;49.754;6.106;2023-07-31T08:54:31;4.63;;;1.80;;
12725;SDS011;6427;49.754;6.106;2023-07-31T08:57:00;5.33;;;1.90;;
12725;SDS011;6427;49.754;6.106;2023-07-31T08:59:28;3.93;;;1.63;;
12725;SDS011;6427;49.754;6.106;2023-07-31T09:01:55;2.57;;;1.63;;
12725;SDS011;6427;49.754;6.106;2023-07-31T09:04:23;5.00;;;1.60;;
12725;SDS011;6427;49.754;6.106;2023-07-31T09:06:50;3.42;;;1.80;;
12725;SDS011;6427;49.754;6.106;2023-07-31T09:09:19;3.10;;;1.60;;
12725;SDS011;6427;49.754;6.106;2023-07-31T09:11:46;3.00;;;1.67;;
12725;SDS011;6427;49.754;6.106;2023-07-31T09:14:14;4.50;;;1.47;;
12725;SDS011;6427;49.754;6.106;2023-07-31T09:16:51;2.83;;;1.67;;
12725;SDS011;6427;49.754;6.106;2023-07-31T09:19:34;4.40;;;1.80;;
12725;SDS011;6427;49.754;6.106;2023-07-31T09:22:02;2.20;;;1.57;;
12725;SDS011;6427;49.754;6.106;2023-07-31T09:24:31;3.27;;;1.60;;
12725;SDS011;6427;49.754;6.106;2023-07-31T09:26:58;4.37;;;1.80;;
12725;SDS011;6427;49.754;6.106;2023-07-31T09:29:26;3.03;;;1.80;;
12725;SDS011;6427;49.754;6.106;2023-07-31T09:31:54;3.20;;;1.50;;
12725;SDS011;6427;49.754;6.106;2023-07-31T09:34:28;4.47;;;1.50;;
12725;SDS011;6427;49.754;6.106;2023-07-31T09:36:49;5.33;;;1.70;;
12725;SDS011;6427;49.754;6.106;2023-07-31T09:39:17;4.70;;;1.80;;
12725;SDS011;6427;49.754;6.106;2023-07-31T09:41:45;3.00;;;1.60;;
12725;SDS011;6427;49.754;6.106;2023-07-31T09:44:11;5.60;;;1.50;;
12725;SDS011;6427;49.754;6.106;2023-07-31T09:46:39;2.27;;;1.60;;
12725;SDS011;6427;49.754;6.106;2023-07-31T09:49:11;4.93;;;1.23;;
12725;SDS011;6427;49.754;6.106;2023-07-31T09:51:39;2.20;;;1.47;;
12725;SDS011;6427;49.754;6.106;2023-07-31T09:54:09;3.12;;;1.70;;
12725;SDS011;6427;49.754;6.106;2023-07-31T09:56:37;3.08;;;1.52;;
12725;SDS011;6427;49.754;6.106;2023-07-31T09:59:04;3.90;;;1.63;;
12725;SDS011;6427;49.754;6.106;2023-07-31T10:01:32;3.17;;;1.70;;
12725;SDS011;6427;49.754;6.106;2023-07-31T10:04:00;2.70;;;1.33;;
12725;SDS011;6427;49.754;6.106;2023-07-31T10:06:27;4.37;;;1.70;;
12725;SDS011;6427;49.754;6.106;2023-07-31T10:08:55;4.77;;;1.40;;
12725;SDS011;6427;49.754;6.106;2023-07-31T10:11:22;5.00;;;1.47;;
12725;SDS011;6427;49.754;6.106;2023-07-31T10:13:50;2.23;;;1.47;;
12725;SDS011;6427;49.754;6.106;2023-07-31T10:16:18;2.70;;;1.57;;
12725;SDS011;6427;49.754;6.106;2023-07-31T10:18:45;4.67;;;1.70;;
12725;SDS011;6427;49.754;6.106;2023-07-31T10:21:13;2.95;;;1.80;;
12725;SDS011;6427;49.754;6.106;2023-07-31T10:23:41;2.83;;;1.67;;
12725;SDS011;6427;49.754;6.106;2023-07-31T10:26:08;4.12;;;1.90;;
12725;SDS011;6427;49.754;6.106;2023-07-31T10:28:36;2.37;;;1.50;;
12725;SDS011;6427;49.754;6.106;2023-07-31T10:31:04;4.17;;;1.87;;
12725;SDS011;6427;49.754;6.106;2023-07-31T10:33:32;5.90;;;1.87;;
12725;SDS011;6427;49.754;6.106;2023-07-31T10:36:17;3.47;;;1.97;;
12725;SDS011;6427;49.754;6.106;2023-07-31T10:38:45;3.53;;;1.97;;
12725;SDS011;6427;49.754;6.106;2023-07-31T10:41:12;3.63;;;1.80;;
12725;SDS011;6427;49.754;6.106;2023-07-31T10:43:40;2.30;;;1.53;;
12725;SDS011;6427;49.754;6.106;2023-07-31T10:46:14;3.45;;;1.58;;
12725;SDS011;6427;49.754;6.106;2023-07-31T10:48:42;5.33;;;1.80;;
12725;SDS011;6427;49.754;6.106;2023-07-31T10:51:12;3.83;;;1.60;;
12725;SDS011;6427;49.754;6.106;2023-07-31T10:53:37;3.70;;;1.80;;
12725;SDS011;6427;49.754;6.106;2023-07-31T10:56:05;5.80;;;1.93;;
12725;SDS011;6427;49.754;6.106;2023-07-31T10:58:32;4.27;;;1.70;;
12725;SDS011;6427;49.754;6.106;2023-07-31T11:01:01;2.50;;;1.50;;
12725;SDS011;6427;49.754;6.106;2023-07-31T11:06:14;5.47;;;2.00;;
12725;SDS011;6427;49.754;6.106;2023-07-31T11:08:42;4.23;;;1.70;;
12725;SDS011;6427;49.754;6.106;2023-07-31T11:11:09;4.53;;;1.93;;
12725;SDS011;6427;49.754;6.106;2023-07-31T11:13:40;4.83;;;1.90;;
12725;SDS011;6427;49.754;6.106;2023-07-31T11:16:22;4.03;;;2.20;;
12725;SDS011;6427;49.754;6.106;2023-07-31T11:18:51;4.37;;;1.97;;
12725;SDS011;6427;49.754;6.106;2023-07-31T11:21:20;4.33;;;1.97;;
12725;SDS011;6427;49.754;6.106;2023-07-31T11:23:47;6.60;;;2.30;;
12725;SDS011;6427;49.754;6.106;2023-07-31T11:26:14;6.40;;;2.17;;
12725;SDS011;6427;49.754;6.106;2023-07-31T11:28:42;4.73;;;2.40;;
12725;SDS011;6427;49.754;6.106;2023-07-31T11:31:10;7.20;;;2.20;;
12725;SDS011;6427;49.754;6.106;2023-07-31T11:33:37;5.30;;;2.30;;
12725;SDS011;6427;49.754;6.106;2023-07-31T11:36:05;4.00;;;2.10;;
12725;SDS011;6427;49.754;6.106;2023-07-31T11:38:33;4.20;;;1.77;;
12725;SDS011;6427;49.754;6.106;2023-07-31T11:41:02;4.30;;;2.30;;
12725;SDS011;6427;49.754;6.106;2023-07-31T11:43:31;4.70;;;2.23;;
12725;SDS011;6427;49.754;6.106;2023-07-31T11:45:59;4.77;;;1.83;;
12725;SDS011;6427;49.754;6.106;2023-07-31T11:48:28;3.40;;;2.20;;
12725;SDS011;6427;49.754;6.106;2023-07-31T11:50:58;6.73;;;1.90;;
12725;SDS011;6427;49.754;6.106;2023-07-31T11:53:27;3.90;;;1.63;;
12725;SDS011;6427;49.754;6.106;2023-07-31T11:56:02;3.73;;;2.07;;
12725;SDS011;6427;49.754;6.106;2023-07-31T11:58:30;3.60;;;2.10;;
12725;SDS011;6427;49.754;6.106;2023-07-31T12:00:57;2.20;;;1.63;;
12725;SDS011;6427;49.754;6.106;2023-07-31T12:03:25;3.80;;;1.77;;
12725;SDS011;6427;49.754;6.106;2023-07-31T12:05:53;2.80;;;1.83;;
12725;SDS011;6427;49.754;6.106;2023-07-31T12:08:20;3.07;;;1.80;;
12725;SDS011;6427;49.754;6.106;2023-07-31T12:10:49;4.47;;;1.47;;
12725;SDS011;6427;49.754;6.106;2023-07-31T12:13:22;5.33;;;1.80;;
12725;SDS011;6427;49.754;6.106;2023-07-31T12:15:49;3.53;;;2.10;;
12725;SDS011;6427;49.754;6.106;2023-07-31T12:18:18;4.97;;;1.57;;
12725;SDS011;6427;49.754;6.106;2023-07-31T12:20:46;3.87;;;2.17;;
12725;SDS011;6427;49.754;6.106;2023-07-31T12:23:20;3.03;;;1.70;;
12725;SDS011;6427;49.754;6.106;2023-07-31T12:25:47;3.87;;;2.10;;
12725;SDS011;6427;49.754;6.106;2023-07-31T12:28:15;4.87;;;2.30;;
12725;SDS011;6427;49.754;6.106;2023-07-31T12:30:43;4.97;;;2.30;;
12725;SDS011;6427;49.754;6.106;2023-07-31T12:33:14;4.72;;;2.58;;
12725;SDS011;6427;49.754;6.106;2023-07-31T12:35:42;8.13;;;2.93;;
12725;SDS011;6427;49.754;6.106;2023-07-31T12:38:09;5.60;;;2.70;;
12725;SDS011;6427;49.754;6.106;2023-07-31T12:40:40;7.77;;;2.57;;
12725;SDS011;6427;49.754;6.106;2023-07-31T12:43:07;6.40;;;2.90;;
12725;SDS011;6427;49.754;6.106;2023-07-31T12:45:34;4.73;;;2.50;;
12725;SDS011;6427;49.754;6.106;2023-07-31T12:48:03;7.77;;;2.97;;
12725;SDS011;6427;49.754;6.106;2023-07-31T12:50:31;6.37;;;3.13;;
12725;SDS011;6427;49.754;6.106;2023-07-31T12:52:58;8.07;;;2.70;;
12725;SDS011;6427;49.754;6.106;2023-07-31T12:55:26;6.10;;;2.90;;
12725;SDS011;6427;49.754;6.106;2023-07-31T12:57:53;5.60;;;2.80;;
12725;SDS011;6427;49.754;6.106;2023-07-31T13:00:21;5.40;;;2.80;;
12725;SDS011;6427;49.754;6.106;2023-07-31T13:02:49;7.57;;;2.97;;
12725;SDS011;6427;49.754;6.106;2023-07-31T13:05:17;6.43;;;2.83;;
12725;SDS011;6427;49.754;6.106;2023-07-31T13:07:45;5.73;;;2.87;;
12725;SDS011;6427;49.754;6.106;2023-07-31T13:10:12;6.57;;;3.20;;
12725;SDS011;6427;49.754;6.106;2023-07-31T13:12:40;7.30;;;2.90;;
12725;SDS011;6427;49.754;6.106;2023-07-31T13:15:07;7.13;;;2.80;;
12725;SDS011;6427;49.754;6.106;2023-07-31T13:17:36;6.80;;;3.27;;
12725;SDS011;6427;49.754;6.106;2023-07-31T13:20:03;6.10;;;2.97;;
12725;SDS011;6427;49.754;6.106;2023-07-31T13:22:31;7.17;;;3.00;;
12725;SDS011;6427;49.754;6.106;2023-07-31T13:24:59;6.90;;;3.07;;
12725;SDS011;6427;49.754;6.106;2023-07-31T13:27:26;8.67;;;2.80;;
12725;SDS011;6427;49.754;6.106;2023-07-31T13:29:55;7.00;;;2.90;;
12725;SDS011;6427;49.754;6.106;2023-07-31T13:32:22;9.00;;;3.00;;
12725;SDS011;6427;49.754;6.106;2023-07-31T13:34:51;6.27;;;2.97;;
12725;SDS011;6427;49.754;6.106;2023-07-31T13:37:18;6.30;;;3.00;;
12725;SDS011;6427;49.754;6.106;2023-07-31T13:39:45;5.60;;;3.10;;
12725;SDS011;6427;49.754;6.106;2023-07-31T13:42:13;7.60;;;2.70;;
12725;SDS011;6427;49.754;6.106;2023-07-31T13:44:41;7.47;;;3.20;;
12725;SDS011;6427;49.754;6.106;2023-07-31T13:47:08;6.30;;;2.60;;
12725;SDS011;6427;49.754;6.106;2023-07-31T13:49:36;10.10;;;3.13;;
12725;SDS011;6427;49.754;6.106;2023-07-31T13:52:03;4.73;;;2.53;;
12725;SDS011;6427;49.754;6.106;2023-07-31T13:54:31;7.18;;;3.03;;
12725;SDS011;6427;49.754;6.106;2023-07-31T13:56:58;7.33;;;3.33;;
12725;SDS011;6427;49.754;6.106;2023-07-31T13:59:26;8.33;;;3.10;;
12725;SDS011;6427;49.754;6.106;2023-07-31T14:01:54;8.50;;;3.70;;
12725;SDS011;6427;49.754;6.106;2023-07-31T14:04:21;8.55;;;3.47;;
12725;SDS011;6427;49.754;6.106;2023-07-31T14:06:49;6.10;;;3.20;;
12725;SDS011;6427;49.754;6.106;2023-07-31T14:09:16;8.13;;;3.40;;
12725;SDS011;6427;49.754;6.106;2023-07-31T14:11:44;5.97;;;3.07;;
12725;SDS011;6427;49.754;6.106;2023-07-31T14:14:12;6.90;;;2.57;;
12725;SDS011;6427;49.754;6.106;2023-07-31T14:16:39;6.80;;;2.80;;
12725;SDS011;6427;49.754;6.106;2023-07-31T14:19:07;7.33;;;3.33;;
12725;SDS011;6427;49.754;6.106;2023-07-31T14:21:35;7.60;;;3.40;;
12725;SDS011;6427;49.754;6.106;2023-07-31T14:24:03;8.67;;;3.80;;
12725;SDS011;6427;49.754;6.106;2023-07-31T14:26:30;7.68;;;3.60;;
12725;SDS011;6427;49.754;6.106;2023-07-31T14:28:58;8.57;;;3.50;;
12725;SDS011;6427;49.754;6.106;2023-07-31T14:31:26;7.60;;;3.17;;
12725;SDS011;6427;49.754;6.106;2023-07-31T14:33:54;7.30;;;3.60;;
12725;SDS011;6427;49.754;6.106;2023-07-31T14:36:22;6.00;;;3.50;;
12725;SDS011;6427;49.754;6.106;2023-07-31T14:38:49;8.17;;;3.70;;
12725;SDS011;6427;49.754;6.106;2023-07-31T14:41:17;7.53;;;3.50;;
12725;SDS011;6427;49.754;6.106;2023-07-31T14:43:44;7.13;;;3.47;;
12725;SDS011;6427;49.754;6.106;2023-07-31T14:46:13;7.40;;;3.27;;
12725;SDS011;6427;49.754;6.106;2023-07-31T14:48:40;10.60;;;3.33;;
12725;SDS011;6427;49.754;6.106;2023-07-31T14:51:08;8.75;;;4.68;;
12725;SDS011;6427;49.754;6.106;2023-07-31T14:53:36;8.65;;;4.35;;
12725;SDS011;6427;49.754;6.106;2023-07-31T14:56:04;6.53;;;3.80;;
12725;SDS011;6427;49.754;6.106;2023-07-31T14:58:32;10.03;;;3.80;;
12725;SDS011;6427;49.754;6.106;2023-07-31T15:00:59;8.17;;;3.87;;
12725;SDS011;6427;49.754;6.106;2023-07-31T15:03:27;6.93;;;3.73;;
12725;SDS011;6427;49.754;6.106;2023-07-31T15:05:55;8.73;;;3.90;;
12725;SDS011;6427;49.754;6.106;2023-07-31T15:08:23;7.37;;;4.30;;
12725;SDS011;6427;49.754;6.106;2023-07-31T15:10:50;7.70;;;3.70;;